Time;durP1;ratioP1;P1;durP2;ratioP2;P2;SDS_P1;SDS_P2;PMS_P1;PMS_P2;Temp;Humidity;BMP_temperature;BMP_pressure;BME280_temperature;BME280_humidity;BME280_pressure;Samples;Min_cycle;Max_cycle;Signal;HPM_P1;HPM_P2
2022/08/12 00:43:53;;;;;;;1.40;0.95;;;;;;;19.00;87.17;102152.91;5078735;28;20042;-71
2022/08/12 00:46:30;;;;;;;2.20;1.05;;;;;;;19.05;88.49;102165.75;5077860;28;20024;-71
2022/08/12 00:48:57;;;;;;;1.70;1.02;;;;;;;19.01;89.54;102161.75;5074509;28;20500;-71
2022/08/12 00:52:04;;;;;;;1.08;0.82;;;;;;;18.95;86.90;102160.63;5075134;28;20384;-70
2022/08/12 00:54:09;;;;;;;1.38;1.02;;;;;;;18.97;88.63;102157.78;5075845;28;20056;-74
2022/08/12 00:56:37;;;;;;;1.40;1.02;;;;;;;18.92;87.82;102163.63;5076137;28;20051;-70
2022/08/12 00:59:03;;;;;;;1.95;1.20;;;;;;;18.88;89.78;102151.66;5073333;28;20090;-70
2022/08/12 01:01:29;;;;;;;2.28;1.42;;;;;;;18.91;90.98;102156.63;5080309;28;20492;-71
2022/08/12 01:12:22;;;;;;;3.15;1.35;;;;;;;18.84;93.21;102161.03;5016324;28;20033;-71
2022/08/12 01:14:47;;;;;;;2.33;1.15;;;;;;;18.81;93.02;102156.81;5018223;28;20067;-71
2022/08/12 01:17:13;;;;;;;2.90;1.50;;;;;;;18.78;92.46;102157.19;5012560;28;20041;-71
2022/08/12 01:19:39;;;;;;;1.40;0.80;;;;;;;18.78;92.95;102165.19;5015742;28;20030;-71
2022/08/12 01:22:46;;;;;;;5.75;1.45;;;;;;;18.79;93.78;102152.66;5015128;28;20053;-71
2022/08/12 01:25:17;;;;;;;2.08;0.98;;;;;;;18.61;94.47;102134.13;4991817;28;20045;-71
2022/08/12 01:27:43;;;;;;;;;;;;;;;18.71;94.62;102153.50;4995832;28;20069;-71
2022/08/12 01:30:12;;;;;;;2.97;1.52;;;;;;;18.68;93.57;102156.50;4994564;28;19970;-71
2022/08/12 01:32:40;;;;;;;5.00;1.52;;;;;;;18.68;93.26;102156.50;4997568;28;20042;-71
2022/08/12 01:35:14;;;;;;;2.05;1.30;;;;;;;18.67;94.05;102155.69;4995905;28;20129;-71
2022/08/12 01:37:54;;;;;;;2.33;1.08;;;;;;;18.64;93.77;102153.34;4992694;28;20544;-71
2022/08/12 01:40:27;;;;;;;2.78;1.70;;;;;;;18.62;95.50;102159.88;4994387;28;20574;-71
2022/08/12 01:42:58;;;;;;;2.55;1.30;;;;;;;18.61;95.40;102158.19;4994127;28;20100;-71
2022/08/12 01:45:28;;;;;;;6.95;2.05;;;;;;;18.58;96.68;102158.56;4997096;28;20061;-71
2022/08/12 01:47:53;;;;;;;1.55;1.10;;;;;;;18.55;96.53;102158.88;4999107;28;20038;-71
2022/08/12 01:50:39;;;;;;;1.50;1.10;;;;;;;18.54;95.81;102151.88;5055931;28;20028;-71
2022/08/12 01:53:11;;;;;;;1.98;1.45;;;;;;;18.53;95.03;102144.84;5050404;28;20036;-71
2022/08/12 01:55:42;;;;;;;3.70;1.10;;;;;;;18.52;95.35;102143.19;5047368;28;20022;-71
2022/08/12 01:59:45;;;;;;;2.17;1.38;;;;;;;18.54;95.00;102146.53;5061790;28;20485;-71
2022/08/12 02:01:19;;;;;;;2.78;1.38;;;;;;;18.54;94.77;102144.69;5080451;28;20048;-71
2022/08/12 02:13:54;;;;;;;2.33;1.30;;;;;;;18.47;95.20;102149.06;5003116;28;20037;-70
2022/08/12 02:16:44;;;;;;;2.65;1.80;;;;;;;18.38;95.59;102126.84;4993748;28;20051;-71
2022/08/12 02:19:39;;;;;;;2.42;1.67;;;;;;;18.45;97.29;102143.03;5000546;28;20529;-71
2022/08/12 02:22:16;;;;;;;2.40;1.33;;;;;;;18.42;97.56;102149.56;4986459;28;20387;-71
2022/08/12 02:24:44;;;;;;;2.65;1.85;;;;;;;18.42;96.60;102144.22;4999351;28;20141;-71
2022/08/12 02:27:12;;;;;;;3.22;1.95;;;;;;;18.41;97.74;102142.53;4998132;28;20038;-71
2022/08/12 02:29:39;;;;;;;3.55;1.48;;;;;;;18.41;97.82;102147.06;5002791;28;20037;-71
2022/08/12 02:32:06;;;;;;;2.42;1.45;;;;;;;18.39;96.25;102139.19;5000688;28;20419;-71
2022/08/12 02:34:32;;;;;;;3.47;1.65;;;;;;;18.39;96.50;102141.88;4999071;28;20069;-71
2022/08/12 02:37:00;;;;;;;5.28;1.63;;;;;;;18.39;96.47;102139.19;5000362;28;20380;-71
2022/08/12 02:39:28;;;;;;;2.90;1.85;;;;;;;18.38;95.59;102132.19;5003472;28;20083;-71
2022/08/12 02:41:57;;;;;;;2.97;1.40;;;;;;;18.31;95.44;102131.19;5003636;28;20442;-71
2022/08/12 02:44:25;;;;;;;2.10;1.25;;;;;;;18.35;95.34;102139.72;5075466;28;20047;-71
2022/08/12 02:46:55;;;;;;;2.33;1.80;;;;;;;18.21;96.22;102114.53;5074140;28;20036;-71
2022/08/12 02:49:28;;;;;;;2.65;1.38;;;;;;;18.30;95.32;102132.22;5069932;28;20045;-71
2022/08/12 02:51:54;;;;;;;3.75;1.85;;;;;;;18.29;96.40;102134.06;5077333;28;20509;-71
2022/08/12 02:54:21;;;;;;;1.95;1.27;;;;;;;18.29;95.80;102136.72;5072026;28;20166;-71
2022/08/12 02:56:47;;;;;;;2.65;1.73;;;;;;;18.29;95.40;102123.38;5077330;28;20032;-71
2022/08/12 02:59:15;;;;;;;2.15;1.67;;;;;;;18.23;95.97;102117.88;5077995;28;20107;-71
2022/08/12 03:01:49;;;;;;;2.90;1.35;;;;;;;18.24;96.57;102125.69;5066286;28;20032;-71
2022/08/12 03:04:37;;;;;;;3.17;1.73;;;;;;;18.20;96.51;102118.19;5071474;28;20392;-71
2022/08/12 03:07:13;;;;;;;2.00;1.50;;;;;;;18.17;97.76;102123.88;5072939;28;20094;-71
2022/08/12 03:09:49;;;;;;;4.40;1.70;;;;;;;18.11;97.79;102116.53;5071923;28;20423;-71
2022/08/12 03:12:17;;;;;;;2.30;1.73;;;;;;;17.94;96.83;102092.50;5077590;28;20460;-71
2022/08/12 03:14:43;;;;;;;16.00;2.22;;;;;;;18.09;96.97;102117.56;5074146;28;20111;-71
2022/08/12 03:17:31;;;;;;;2.63;1.50;;;;;;;18.06;95.89;102119.72;5071629;28;20453;-71
2022/08/12 03:19:56;;;;;;;2.88;1.63;;;;;;;18.02;95.44;102116.53;5074354;28;20023;-71
2022/08/12 03:22:23;;;;;;;2.47;1.83;;;;;;;18.02;96.27;102116.53;5071385;28;20349;-71
2022/08/12 03:24:49;;;;;;;4.03;1.65;;;;;;;18.01;95.58;102119.41;5068147;28;20549;-71
2022/08/12 03:27:15;;;;;;;2.10;1.40;;;;;;;17.93;94.84;102112.22;5062984;28;20032;-71
2022/08/12 03:29:46;;;;;;;1.92;1.33;;;;;;;17.94;93.55;102118.38;5076388;28;20377;-71
2022/08/12 03:32:17;;;;;;;3.58;1.75;;;;;;;17.92;94.11;102118.56;5078120;28;20056;-71
2022/08/12 03:34:45;;;;;;;1.52;1.27;;;;;;;17.88;93.39;102123.41;5071388;28;20017;-71
2022/08/12 03:37:13;;;;;;;2.17;1.63;;;;;;;17.86;94.63;102113.88;5080452;28;20141;-71
2022/08/12 03:42:16;;;;;;;2.40;1.77;;;;;;;17.81;94.93;102118.84;5079941;28;20498;-71
2022/08/12 04:01:56;;;;;;;3.50;2.05;;;;;;;17.62;92.45;102120.84;5082264;28;20054;-71
2022/08/12 04:04:23;;;;;;;2.38;1.75;;;;;;;17.62;92.94;102126.19;5069810;28;20024;-71
2022/08/12 04:06:49;;;;;;;3.67;1.50;;;;;;;17.56;92.41;102102.81;5073034;28;20016;-71
2022/08/12 04:09:19;;;;;;;4.38;1.75;;;;;;;17.60;92.26;102108.69;5077003;28;20470;-71
2022/08/12 04:14:30;;;;;;;2.67;1.92;;;;;;;17.60;92.23;102111.34;5069225;28;20405;-71
2022/08/12 04:16:56;;;;;;;3.40;2.28;;;;;;;17.56;92.66;102115.34;5078960;28;20484;-71
2022/08/12 04:19:23;;;;;;;3.00;1.75;;;;;;;17.45;91.79;102098.63;5072016;28;20070;-70
2022/08/12 04:21:49;;;;;;;3.78;1.40;;;;;;;17.51;89.85;102118.50;5078950;28;20020;-70
2022/08/12 04:24:17;;;;;;;1.90;1.20;;;;;;;17.50;89.10;102110.66;5078403;28;20476;-70
2022/08/12 04:26:42;;;;;;;2.88;1.40;;;;;;;17.44;88.06;102110.31;5069022;28;20024;-70
2022/08/12 04:29:09;;;;;;;1.70;1.13;;;;;;;17.42;88.38;102109.66;5083693;28;20373;-70
2022/08/12 04:31:36;;;;;;;2.67;1.77;;;;;;;17.43;87.51;102105.16;5064867;28;20045;-70
2022/08/12 04:34:03;;;;;;;3.15;1.98;;;;;;;17.44;90.50;102113.00;5077659;28;20598;-70
2022/08/12 04:36:30;;;;;;;3.17;1.70;;;;;;;17.42;92.58;102104.31;5068949;28;20077;-70
2022/08/12 04:38:57;;;;;;;7.68;2.45;;;;;;;17.36;92.78;102093.47;5070161;28;20048;-70
2022/08/12 04:41:23;;;;;;;3.28;1.55;;;;;;;17.38;94.73;102102.16;5067884;28;20029;-70
2022/08/12 04:43:49;;;;;;;3.28;1.92;;;;;;;17.36;96.07;102098.81;5073765;28;20023;-70
2022/08/12 04:46:14;;;;;;;2.67;1.70;;;;;;;17.36;95.10;102102.31;5075111;28;20029;-71
2022/08/12 04:48:40;;;;;;;2.13;1.27;;;;;;;17.35;94.15;102078.44;5067973;28;20500;-70
2022/08/12 04:51:06;;;;;;;3.03;1.77;;;;;;;17.39;93.77;102079.78;5068618;28;20062;-70
2022/08/12 04:53:32;;;;;;;2.30;1.85;;;;;;;17.45;94.03;102084.47;5066911;28;20029;-71
2022/08/12 04:55:57;;;;;;;3.90;2.25;;;;;;;17.52;95.73;102092.66;5084305;28;20499;-70
2022/08/12 04:58:23;;;;;;;2.53;1.65;;;;;;;17.54;95.31;102096.00;5077380;28;20434;-70
2022/08/12 05:00:48;;;;;;;2.67;1.80;;;;;;;17.56;95.01;102094.81;5077425;28;20029;-70
2022/08/12 05:03:14;;;;;;;3.58;2.10;;;;;;;17.60;95.74;102106.84;5077950;28;20075;-70
2022/08/12 05:05:40;;;;;;;3.17;1.95;;;;;;;17.62;95.20;102098.66;5076034;28;20040;-71
2022/08/12 05:08:15;;;;;;;3.15;2.05;;;;;;;17.67;94.47;102102.50;5086041;28;20526;-70
2022/08/12 05:10:43;;;;;;;3.13;2.05;;;;;;;17.70;93.62;102101.31;5074184;28;20036;-70
2022/08/12 05:13:11;;;;;;;4.85;2.03;;;;;;;17.69;92.92;102100.50;5077324;28;20020;-70
2022/08/12 05:15:38;;;;;;;3.20;1.50;;;;;;;17.77;93.34;102112.16;5082174;28;20059;-70
2022/08/12 05:18:04;;;;;;;4.78;2.00;;;;;;;17.80;92.02;102109.19;5077528;28;20473;-70
2022/08/12 05:20:29;;;;;;;3.45;1.90;;;;;;;17.85;91.91;102104.19;5073696;28;20020;-70
2022/08/12 05:23:12;;;;;;;2.15;1.50;;;;;;;17.82;92.03;102104.53;5072791;28;20393;-70
2022/08/12 05:25:38;;;;;;;1.70;1.48;;;;;;;17.93;92.70;102112.22;5074463;28;20447;-71
2022/08/12 05:28:04;;;;;;;3.03;1.77;;;;;;;17.95;91.78;102110.22;5076380;28;20029;-71
2022/08/12 05:30:32;;;;;;;3.70;1.88;;;;;;;17.96;92.48;102117.19;5083001;28;20042;-70
2022/08/12 05:32:58;;;;;;;5.68;1.92;;;;;;;18.05;92.10;102110.03;5071838;28;20041;-70
2022/08/12 05:35:24;;;;;;;5.35;2.50;;;;;;;18.05;93.07;102124.22;5073946;28;20327;-70
2022/08/12 05:38:54;;;;;;;3.20;1.83;;;;;;;18.08;93.19;102125.72;5078107;28;20384;-71
2022/08/12 05:40:35;;;;;;;3.75;1.90;;;;;;;18.16;94.20;102131.06;5078421;28;20037;-70
2022/08/12 05:43:01;;;;;;;2.40;1.70;;;;;;;18.20;93.91;102132.38;5076152;28;20119;-70
2022/08/12 05:45:26;;;;;;;1.95;1.60;;;;;;;18.27;94.16;102129.88;5079893;28;20166;-70
2022/08/12 05:47:51;;;;;;;3.45;2.15;;;;;;;18.33;94.21;102134.53;5072916;28;20029;-72
2022/08/12 05:50:17;;;;;;;2.30;1.83;;;;;;;18.42;93.35;102141.56;5076917;28;20024;-70
2022/08/12 05:52:43;;;;;;;3.75;1.63;;;;;;;18.46;94.65;102136.69;5072707;28;20024;-71
2022/08/12 05:55:09;;;;;;;2.83;1.70;;;;;;;18.53;93.85;102140.34;5077806;28;20016;-70
2022/08/12 05:57:34;;;;;;;3.63;2.05;;;;;;;18.56;93.14;102129.31;5080205;28;20024;-70
2022/08/12 06:00:00;;;;;;;2.22;1.58;;;;;;;18.69;93.79;102134.94;5075755;28;20121;-70
2022/08/12 06:02:25;;;;;;;2.15;1.23;;;;;;;18.77;91.93;102136.78;5077263;28;20035;-70
2022/08/12 06:04:50;;;;;;;2.72;2.15;;;;;;;18.84;91.91;102135.09;5074485;28;20048;-70
2022/08/12 06:07:17;;;;;;;3.40;2.38;;;;;;;18.98;90.83;102138.03;5069577;28;20107;-71
2022/08/12 06:09:42;;;;;;;3.38;1.55;;;;;;;19.06;91.34;102135.34;5083041;28;20085;-70
2022/08/12 06:12:08;;;;;;;1.70;1.52;;;;;;;19.15;90.63;102134.28;5070965;28;20036;-70
2022/08/12 06:14:35;;;;;;;2.13;1.35;;;;;;;19.18;89.36;102112.50;5073371;28;20037;-70
2022/08/12 06:17:01;;;;;;;3.63;1.80;;;;;;;19.38;87.59;102128.13;5058173;28;20643;-70
2022/08/12 06:19:30;;;;;;;2.90;1.77;;;;;;;19.53;87.60;102123.66;5075858;28;20078;-70
2022/08/12 06:21:56;;;;;;;2.58;2.05;;;;;;;19.60;85.60;102116.59;5081982;28;20031;-70
2022/08/12 06:24:23;;;;;;;2.28;2.05;;;;;;;19.76;85.28;102115.66;5080775;28;20035;-70
2022/08/12 06:26:50;;;;;;;3.25;2.03;;;;;;;19.89;84.84;102117.75;5079591;28;20046;-70
2022/08/12 06:29:18;;;;;;;3.13;1.33;;;;;;;20.09;83.92;102121.56;5079514;28;20056;-70
2022/08/12 06:31:50;;;;;;;2.30;1.70;;;;;;;20.26;82.79;102122.25;5079171;28;20129;-70
2022/08/12 06:34:18;;;;;;;3.38;2.00;;;;;;;20.35;83.08;102120.31;5072230;28;20490;-70
2022/08/12 06:36:45;;;;;;;3.75;2.35;;;;;;;20.33;83.31;102127.72;5076741;28;20032;-71
2022/08/12 06:39:12;;;;;;;2.85;1.70;;;;;;;20.45;83.28;102128.94;5075063;28;20499;-70
2022/08/12 06:44:22;;;;;;;2.55;1.73;;;;;;;20.79;82.62;102121.34;5073199;28;20408;-70
2022/08/12 06:46:47;;;;;;;2.53;2.22;;;;;;;20.82;82.68;102105.72;5070059;28;20043;-70
2022/08/12 06:49:13;;;;;;;4.03;2.10;;;;;;;21.04;81.31;102119.19;5070922;28;20032;-70
2022/08/12 06:51:38;;;;;;;2.70;1.60;;;;;;;21.15;81.17;102119.53;5076037;28;20044;-70
2022/08/12 06:54:04;;;;;;;4.03;1.90;;;;;;;21.64;79.61;102112.63;5078201;28;20538;-70
2022/08/12 06:56:30;;;;;;;4.45;2.22;;;;;;;21.85;77.48;102102.88;5056269;28;20109;-70
2022/08/12 06:58:56;;;;;;;2.42;1.55;;;;;;;22.53;75.68;102114.75;5054257;28;20435;-70
2022/08/12 07:01:23;;;;;;;3.25;2.00;;;;;;;23.03;73.66;102119.97;5077229;28;20020;-70
2022/08/12 07:03:50;;;;;;;8.75;1.80;;;;;;;23.47;72.55;102118.63;5074677;28;20494;-70
2022/08/12 07:06:15;;;;;;;3.00;1.65;;;;;;;24.44;69.74;102116.31;5074328;28;20036;-70
2022/08/12 07:08:42;;;;;;;4.57;1.73;;;;;;;24.50;69.95;102112.81;5075509;28;20024;-70
2022/08/12 07:11:12;;;;;;;2.75;1.50;;;;;;;25.44;67.99;102114.03;5072711;28;20020;-71
2022/08/12 07:13:43;;;;;;;7.45;1.40;;;;;;;25.86;65.00;102113.50;5074979;28;20101;-71
2022/08/12 07:16:18;;;;;;;1.60;1.30;;;;;;;26.31;64.79;102110.59;5073124;28;20032;-71
2022/08/12 07:18:46;;;;;;;2.47;1.67;;;;;;;26.47;63.87;102115.41;5073734;28;20032;-71
2022/08/12 07:21:12;;;;;;;2.55;1.52;;;;;;;26.12;63.02;102109.75;5073696;28;20602;-71
2022/08/12 07:23:40;;;;;;;1.92;1.45;;;;;;;26.88;60.91;102104.97;5082847;28;20028;-71
2022/08/12 07:26:07;;;;;;;2.03;1.20;;;;;;;27.02;60.68;102109.16;5074690;28;20703;-71
2022/08/12 07:28:38;;;;;;;2.03;1.30;;;;;;;27.79;59.96;102113.03;5076300;28;20039;-71
2022/08/12 07:31:07;;;;;;;3.25;1.40;;;;;;;28.28;56.49;102102.75;5076505;28;20032;-71
2022/08/12 07:33:37;;;;;;;2.10;1.45;;;;;;;28.37;57.63;102124.94;5072118;28;20048;-71
2022/08/12 07:36:05;;;;;;;1.42;0.98;;;;;;;29.69;54.98;102123.16;5068321;28;20031;-71
2022/08/12 07:38:33;;;;;;;2.70;1.63;;;;;;;30.25;52.31;102132.16;5077233;28;20311;-71
2022/08/12 07:41:04;;;;;;;1.60;1.20;;;;;;;30.19;52.57;102135.88;5073894;28;20029;-71
2022/08/12 07:43:32;;;;;;;1.65;1.20;;;;;;;31.21;51.01;102139.06;5071814;28;20356;-71
2022/08/12 07:45:59;;;;;;;1.92;1.15;;;;;;;31.76;51.04;102134.38;5078232;28;20024;-71
2022/08/12 07:48:25;;;;;;;3.10;1.30;;;;;;;32.38;48.86;102141.03;5078783;28;20160;-71
2022/08/12 07:50:51;;;;;;;4.20;1.30;;;;;;;32.62;48.18;102136.00;5069937;28;20071;-71
2022/08/12 07:53:16;;;;;;;2.50;1.50;;;;;;;33.24;47.34;102134.25;5060207;28;20404;-71
2022/08/12 07:55:43;;;;;;;4.28;1.45;;;;;;;33.40;47.12;102135.06;5074772;28;20024;-71
2022/08/12 07:58:08;;;;;;;2.10;1.15;;;;;;;33.76;46.57;102132.38;5078201;28;20020;-71
2022/08/12 08:00:36;;;;;;;1.63;1.30;;;;;;;33.97;45.22;102124.91;5071201;28;20021;-71
2022/08/12 08:03:02;;;;;;;3.55;1.30;;;;;;;33.63;46.10;102132.94;5074741;28;20031;-71
2022/08/12 08:05:45;;;;;;;1.80;1.20;;;;;;;33.55;45.38;102140.53;5074416;28;20024;-71
2022/08/12 08:08:15;;;;;;;1.08;0.80;;;;;;;34.28;45.01;102139.41;5072054;28;20032;-71
2022/08/12 08:10:41;;;;;;;3.33;1.08;;;;;;;35.13;44.84;102138.44;5075616;28;20139;-71
2022/08/12 08:13:07;;;;;;;1.50;1.00;;;;;;;35.19;43.32;102126.34;5076284;28;20525;-71
2022/08/12 08:15:33;;;;;;;2.72;1.33;;;;;;;35.12;43.57;102136.75;5074444;28;20412;-72
2022/08/12 08:18:01;;;;;;;3.10;1.30;;;;;;;34.05;45.65;102134.50;5074295;28;20150;-71
2022/08/12 08:20:32;;;;;;;3.67;1.70;;;;;;;33.89;44.14;102136.44;5073797;28;20095;-71
2022/08/12 08:23:04;;;;;;;1.90;1.33;;;;;;;34.33;43.31;102138.56;5071089;28;20265;-71
2022/08/12 08:25:32;;;;;;;2.40;1.38;;;;;;;33.91;43.34;102129.59;5074773;28;20061;-71
2022/08/12 08:27:59;;;;;;;3.08;1.20;;;;;;;34.05;42.61;102126.28;5071166;28;20029;-71
2022/08/12 08:30:26;;;;;;;1.80;1.27;;;;;;;34.55;41.52;102132.69;5076000;28;20033;-71
2022/08/12 08:32:51;;;;;;;2.10;1.60;;;;;;;34.38;41.83;102135.78;5080199;28;20051;-71
2022/08/12 08:35:17;;;;;;;1.48;1.05;;;;;;;35.75;40.82;102126.97;5076869;28;20036;-72
2022/08/12 08:37:45;;;;;;;1.85;1.52;;;;;;;35.91;40.72;102133.97;5074340;28;20208;-71
2022/08/12 08:42:54;;;;;;;2.10;1.10;;;;;;;36.31;40.92;102134.63;5071851;28;20403;-72
2022/08/12 08:45:20;;;;;;;3.30;1.05;;;;;;;36.56;40.08;102132.66;5080268;28;20029;-71
2022/08/12 08:47:47;;;;;;;1.40;0.90;;;;;;;37.04;40.66;102125.13;5075400;28;20468;-71
2022/08/12 08:50:15;;;;;;;1.92;1.23;;;;;;;37.36;38.81;102125.44;5076528;28;20029;-72
2022/08/12 08:52:44;;;;;;;1.27;0.98;;;;;;;37.95;39.42;102118.31;5077010;28;20125;-72
2022/08/12 08:55:12;;;;;;;2.22;1.13;;;;;;;37.49;38.62;102123.84;5075669;28;20078;-72
2022/08/12 08:57:39;;;;;;;1.40;1.15;;;;;;;38.14;38.33;102122.97;5074771;28;20025;-71
2022/08/12 09:00:06;;;;;;;5.82;1.00;;;;;;;37.54;38.66;102127.31;5080556;28;20021;-71
2022/08/12 09:02:31;;;;;;;2.65;0.95;;;;;;;39.14;37.90;102127.66;5074711;28;20098;-71
2022/08/12 09:04:57;;;;;;;5.00;1.45;;;;;;;39.22;35.76;102126.88;5075888;28;20036;-71
2022/08/12 09:07:22;;;;;;;3.60;1.27;;;;;;;38.22;37.22;102123.06;5072453;28;20555;-71
2022/08/12 09:09:50;;;;;;;2.15;1.10;;;;;;;38.78;36.16;102125.72;5073761;28;20020;-71
2022/08/12 09:15:00;;;;;;;3.90;1.38;;;;;;;39.28;35.49;102117.34;5074817;28;20128;-71
2022/08/12 09:17:25;;;;;;;4.70;1.27;;;;;;;39.86;35.47;102121.94;5077277;28;20107;-71
2022/08/12 09:19:50;;;;;;;2.22;1.52;;;;;;;38.75;35.81;102121.66;5073257;28;20035;-72
2022/08/12 09:22:16;;;;;;;1.38;1.15;;;;;;;38.10;35.88;102119.19;5079540;28;20033;-72
2022/08/12 09:24:41;;;;;;;1.97;1.37;;;;;;;37.08;37.00;102117.06;5073431;28;20046;-72
2022/08/12 09:27:07;;;;;;;4.85;1.38;;;;;;;37.23;38.67;102116.84;5078956;28;20408;-71
2022/08/12 09:29:32;;;;;;;3.65;1.33;;;;;;;36.94;38.73;102113.44;5074452;28;20032;-71
2022/08/12 09:31:59;;;;;;;1.83;1.15;;;;;;;37.80;38.79;102113.91;5076815;28;20125;-72
2022/08/12 09:34:30;;;;;;;2.25;1.50;;;;;;;36.75;38.36;102117.00;5074519;28;20025;-74
2022/08/12 09:36:56;;;;;;;1.67;1.00;;;;;;;36.97;40.03;102110.09;5074770;28;20034;-71
2022/08/12 09:39:21;;;;;;;2.00;1.35;;;;;;;36.40;38.42;102104.53;5080198;28;20494;-71
2022/08/12 09:45:19;;;;;;;1.98;1.42;;;;;;;35.93;39.89;102109.75;5070587;28;20020;-71
2022/08/12 09:47:19;;;;;;;1.70;1.00;;;;;;;36.31;40.30;102109.88;5073285;28;20534;-71
2022/08/12 09:49:46;;;;;;;1.92;0.80;;;;;;;37.41;37.90;102089.56;5077860;28;20036;-71
2022/08/12 09:52:14;;;;;;;1.77;1.20;;;;;;;38.87;38.43;102097.09;5071828;28;20036;-71
2022/08/12 09:54:39;;;;;;;1.83;1.10;;;;;;;38.83;37.10;102093.31;5071224;28;20404;-71
2022/08/12 09:57:16;;;;;;;1.88;1.50;;;;;;;37.77;36.67;102098.00;5057097;28;20025;-71
2022/08/12 09:59:42;;;;;;;3.83;1.52;;;;;;;36.58;39.09;102100.16;5073065;28;20318;-71
2022/08/12 10:02:07;;;;;;;4.43;1.80;;;;;;;39.02;37.94;102100.63;5073370;28;20071;-71
2022/08/12 10:04:33;;;;;;;2.35;1.58;;;;;;;39.23;36.13;102098.97;5075039;28;20468;-71
2022/08/12 10:06:58;;;;;;;2.78;1.67;;;;;;;39.46;36.46;102091.50;5073694;28;20061;-71
2022/08/12 10:09:24;;;;;;;3.20;1.00;;;;;;;37.93;35.93;102089.44;5073983;28;20089;-71
2022/08/12 10:14:33;;;;;;;3.30;1.10;;;;;;;38.26;37.16;102076.38;5071097;28;20043;-71
2022/08/12 10:16:59;;;;;;;2.78;1.17;;;;;;;38.19;36.79;102098.03;5075432;28;20029;-71
2022/08/12 10:19:25;;;;;;;4.40;1.10;;;;;;;37.77;36.72;102089.75;5072467;28;20024;-71
2022/08/12 10:21:52;;;;;;;2.65;1.52;;;;;;;36.75;37.55;102077.69;5076158;28;20365;-71
2022/08/12 10:24:22;;;;;;;1.73;1.10;;;;;;;37.93;36.33;102090.25;5073439;28;20028;-71
2022/08/12 10:29:37;;;;;;;1.77;0.93;;;;;;;41.27;33.31;102085.81;5070596;28;20035;-71
2022/08/12 10:32:20;;;;;;;3.47;1.33;;;;;;;41.29;32.88;102085.44;5075504;28;20562;-71
2022/08/12 10:34:49;;;;;;;2.15;1.02;;;;;;;40.85;34.45;102066.13;5071400;28;20029;-71
2022/08/12 10:37:15;;;;;;;1.70;1.15;;;;;;;40.61;34.04;102085.19;5074793;28;20034;-71
2022/08/12 10:39:41;;;;;;;2.28;1.38;;;;;;;39.89;34.42;102076.25;5072940;28;20099;-71
2022/08/12 10:45:03;;;;;;;1.48;1.08;;;;;;;41.16;32.67;102065.16;5074445;28;20516;-71
2022/08/12 10:47:33;;;;;;;4.22;1.27;;;;;;;41.92;31.72;102066.28;5073547;28;20446;-71
2022/08/12 10:49:59;;;;;;;4.25;1.27;;;;;;;40.06;32.72;102069.97;5072599;28;20032;-71
2022/08/12 10:52:27;;;;;;;1.60;1.13;;;;;;;37.50;34.67;102056.63;5071005;28;20503;-71
2022/08/12 10:54:54;;;;;;;1.30;0.98;;;;;;;38.60;34.52;102061.31;5072530;28;20484;-71
2022/08/12 10:57:20;;;;;;;1.15;0.80;;;;;;;39.37;34.12;102042.84;5073715;28;20012;-71
2022/08/12 10:59:45;;;;;;;3.13;2.05;;;;;;;40.09;32.19;102055.47;5075391;28;20532;-71
2022/08/12 11:02:14;;;;;;;0.95;0.80;;;;;;;40.09;31.48;102045.25;5073051;28;20461;-71
2022/08/12 11:04:40;;;;;;;2.55;0.90;;;;;;;39.57;34.31;102044.25;5059554;28;20036;-71
2022/08/12 11:07:07;;;;;;;1.67;0.80;;;;;;;41.85;29.39;102049.38;5071850;28;20069;-71
2022/08/12 11:09:33;;;;;;;1.13;0.80;;;;;;;40.42;32.55;102044.84;5071410;28;20408;-71
2022/08/12 11:12:04;;;;;;;2.20;0.80;;;;;;;41.68;31.97;102040.03;5073387;28;20074;-72
2022/08/12 11:14:32;;;;;;;1.73;1.00;;;;;;;42.31;30.26;102034.59;5071673;28;20024;-71
2022/08/12 11:17:05;;;;;;;1.20;1.00;;;;;;;41.04;31.07;102031.75;5073548;28;20039;-71
2022/08/12 11:19:33;;;;;;;1.40;1.00;;;;;;;40.18;31.58;102031.44;5069658;28;20075;-71
2022/08/12 11:21:59;;;;;;;2.05;0.95;;;;;;;40.49;32.06;102028.56;5074269;28;20032;-71
2022/08/12 11:24:25;;;;;;;1.20;0.90;;;;;;;42.11;29.95;102022.31;5073706;28;20062;-71
2022/08/12 11:26:52;;;;;;;1.25;0.85;;;;;;;42.12;28.78;102018.41;5076126;28;20495;-71
2022/08/12 11:29:19;;;;;;;8.90;1.08;;;;;;;39.58;30.31;102023.78;5073725;28;20310;-71
2022/08/12 11:31:45;;;;;;;1.02;0.70;;;;;;;40.00;30.39;102022.28;5073487;28;20109;-71
2022/08/12 11:34:11;;;;;;;1.20;0.90;;;;;;;40.57;31.98;102012.25;5072674;28;20036;-71
2022/08/12 11:36:36;;;;;;;2.85;0.90;;;;;;;42.51;29.17;102012.75;5071872;28;20035;-71
2022/08/12 11:39:02;;;;;;;1.58;0.95;;;;;;;41.56;30.91;102014.16;5071788;28;20035;-71
2022/08/12 11:41:28;;;;;;;1.10;0.70;;;;;;;42.70;29.46;102003.88;5071876;28;20043;-71
2022/08/12 11:43:53;;;;;;;1.10;0.80;;;;;;;42.08;28.49;102003.59;5073779;28;20056;-71
2022/08/12 11:46:18;;;;;;;4.95;1.23;;;;;;;40.32;31.86;101995.38;5068865;28;20500;-71
2022/08/12 11:48:44;;;;;;;1.73;1.02;;;;;;;41.44;31.02;101984.38;5072698;28;20504;-71
2022/08/12 11:51:09;;;;;;;1.70;1.00;;;;;;;42.43;30.56;101995.00;5074208;28;20036;-71
2022/08/12 11:53:35;;;;;;;4.20;1.05;;;;;;;42.82;29.51;101992.00;5068938;28;20040;-71
2022/08/12 11:56:02;;;;;;;1.73;0.80;;;;;;;41.76;30.52;101991.22;5073043;28;20059;-71
2022/08/12 11:58:27;;;;;;;4.38;1.15;;;;;;;43.03;29.29;101980.84;5073005;28;20025;-71
2022/08/12 12:00:52;;;;;;;1.75;0.90;;;;;;;43.43;28.51;101991.31;5074422;28;20033;-72
2022/08/12 12:03:18;;;;;;;1.38;0.93;;;;;;;42.90;28.04;101972.50;5071487;28;20533;-71
2022/08/12 12:05:44;;;;;;;1.58;0.73;;;;;;;41.69;30.47;101980.69;5068703;28;20036;-71
2022/08/12 12:08:19;;;;;;;2.65;1.10;;;;;;;41.41;30.17;101979.50;5072710;28;20051;-71
2022/08/12 12:10:44;;;;;;;0.95;0.70;;;;;;;42.20;30.13;101977.06;5073194;28;20047;-71
2022/08/12 12:13:09;;;;;;;4.32;0.95;;;;;;;41.98;30.11;101970.69;5073786;28;20025;-71
2022/08/12 12:15:35;;;;;;;6.78;1.40;;;;;;;40.08;31.78;101988.31;5073680;28;20492;-71
2022/08/12 12:18:00;;;;;;;1.40;0.80;;;;;;;40.42;33.92;101970.16;5070554;28;20473;-71
2022/08/12 12:20:25;;;;;;;1.38;0.95;;;;;;;41.53;32.39;101980.44;5073517;28;20032;-71
2022/08/12 12:22:51;;;;;;;2.45;0.98;;;;;;;39.47;33.81;101981.84;5071332;28;20068;-71
2022/08/12 12:25:16;;;;;;;0.83;0.50;;;;;;;40.47;32.88;101972.72;5060482;28;20086;-71
2022/08/12 12:27:52;;;;;;;1.10;0.90;;;;;;;40.88;33.02;101963.09;5075578;28;20269;-71
2022/08/12 12:30:18;;;;;;;1.38;1.20;;;;;;;39.40;34.92;101964.94;5071153;28;20037;-71
2022/08/12 12:32:43;;;;;;;2.17;0.93;;;;;;;40.18;34.69;101967.03;5069558;28;20502;-71
2022/08/12 12:35:09;;;;;;;1.77;1.00;;;;;;;41.71;34.49;101961.75;5071874;28;20031;-71
2022/08/12 12:37:49;;;;;;;2.38;1.20;;;;;;;43.13;31.28;101963.72;5071930;28;20074;-71
2022/08/12 12:40:14;;;;;;;2.97;1.10;;;;;;;43.20;30.76;101961.19;5073622;28;20545;-71
2022/08/12 12:42:40;;;;;;;1.35;0.77;;;;;;;42.41;31.17;101961.25;5073953;28;20020;-71
2022/08/12 12:45:06;;;;;;;5.18;0.85;;;;;;;41.56;32.37;101948.47;5072258;28;20120;-71
2022/08/12 12:47:31;;;;;;;3.40;1.75;;;;;;;40.84;32.81;101948.28;5070829;28;20032;-71
2022/08/12 12:49:56;;;;;;;3.55;1.30;;;;;;;39.96;33.91;101949.47;5074077;28;20073;-71
2022/08/12 12:52:22;;;;;;;2.47;1.00;;;;;;;39.84;32.51;101949.28;5068685;28;20032;-71
2022/08/12 12:54:56;;;;;;;2.88;1.17;;;;;;;40.01;33.33;101951.25;5077377;28;20028;-71
2022/08/12 12:57:23;;;;;;;3.38;1.17;;;;;;;38.63;34.97;101942.91;5070785;28;20028;-71
2022/08/12 13:00:13;;;;;;;1.83;0.90;;;;;;;38.00;36.70;101946.53;5057830;28;20028;-71
2022/08/12 13:02:39;;;;;;;2.72;0.90;;;;;;;39.55;33.69;101947.91;5067969;28;20041;-71
2022/08/12 13:05:06;;;;;;;2.20;1.10;;;;;;;39.53;35.49;101952.13;5069029;28;20068;-71
2022/08/12 13:07:37;;;;;;;1.48;0.90;;;;;;;40.66;34.01;101944.72;5073546;28;20029;-71
2022/08/12 13:10:03;;;;;;;6.65;1.10;;;;;;;41.28;33.58;101937.84;5071161;28;20033;-71
2022/08/12 13:12:29;;;;;;;1.63;1.15;;;;;;;40.88;34.33;101940.94;5073949;28;20028;-71